Esmond, Illinois
Current Conditions -  °F | °C
As of 10:15 PM on Tuesday 21 Oct 2014 (Local Time) from KRPJ Reporting Station
Clear Clear  
Wind Chill: 37°   Ceiling: Unl
Heat Index: 37°   Visibility: 10mi
Dew Point: 35°   Wind: 3mph
Humidity: 91%   Direction: 90°E
Pressure: 30.28"   Gusts: NA
Location:  42.03°N, 88.94°W
Report Text: KRPJ 220315Z AUTO 09003KT 10SM CLR 03/02 A3028 RMK AO2 T00300016
Loading
Personal Weather Stations






























Interactive Weather Map
Tropical Storm Tracking
New forecast layout! Learn more

10-Day Weather Forecast

Advertisements
Track Severe Weather on mobile